sensor_id;sensor_type;location;lat;lon;timestamp;temperature;humidity
17827;DHT22;9038;48.208;16.308;2023-02-22T00:00:38;13.50;66.50
17827;DHT22;9038;48.208;16.308;2023-02-22T00:02:43;13.50;66.70
17827;DHT22;9038;48.208;16.308;2023-02-22T00:04:46;13.50;66.90
17827;DHT22;9038;48.208;16.308;2023-02-22T00:06:48;13.50;67.10
17827;DHT22;9038;48.208;16.308;2023-02-22T00:08:50;13.50;67.30
17827;DHT22;9038;48.208;16.308;2023-02-22T00:10:52;13.50;67.30
17827;DHT22;9038;48.208;16.308;2023-02-22T00:12:54;13.50;67.50
17827;DHT22;9038;48.208;16.308;2023-02-22T00:14:56;13.50;67.50
17827;DHT22;9038;48.208;16.308;2023-02-22T00:16:58;13.50;67.60
17827;DHT22;9038;48.208;16.308;2023-02-22T00:18:59;13.50;67.70
17827;DHT22;9038;48.208;16.308;2023-02-22T00:21:03;13.50;67.70
17827;DHT22;9038;48.208;16.308;2023-02-22T00:23:05;13.50;67.50
17827;DHT22;9038;48.208;16.308;2023-02-22T00:25:07;13.50;67.60
17827;DHT22;9038;48.208;16.308;2023-02-22T00:27:09;13.50;67.60
17827;DHT22;9038;48.208;16.308;2023-02-22T00:29:11;13.50;67.60
17827;DHT22;9038;48.208;16.308;2023-02-22T00:31:13;13.60;67.50
17827;DHT22;9038;48.208;16.308;2023-02-22T00:33:14;13.60;67.40
17827;DHT22;9038;48.208;16.308;2023-02-22T00:35:17;13.60;67.30
17827;DHT22;9038;48.208;16.308;2023-02-22T00:37:20;13.60;67.10
17827;DHT22;9038;48.208;16.308;2023-02-22T00:39:22;13.60;67.20
17827;DHT22;9038;48.208;16.308;2023-02-22T00:41:24;13.60;67.00
17827;DHT22;9038;48.208;16.308;2023-02-22T00:43:25;13.60;66.80
17827;DHT22;9038;48.208;16.308;2023-02-22T00:45:28;13.60;66.90
17827;DHT22;9038;48.208;16.308;2023-02-22T00:47:30;13.60;66.70
17827;DHT22;9038;48.208;16.308;2023-02-22T00:49:32;13.60;66.50
17827;DHT22;9038;48.208;16.308;2023-02-22T00:51:34;13.60;66.60
17827;DHT22;9038;48.208;16.308;2023-02-22T00:53:37;13.50;66.10
17827;DHT22;9038;48.208;16.308;2023-02-22T00:55:39;13.50;65.70
17827;DHT22;9038;48.208;16.308;2023-02-22T00:57:40;13.60;65.70
17827;DHT22;9038;48.208;16.308;2023-02-22T00:59:42;13.60;65.60
17827;DHT22;9038;48.208;16.308;2023-02-22T01:01:44;13.60;65.10
17827;DHT22;9038;48.208;16.308;2023-02-22T01:03:46;13.60;64.90
17827;DHT22;9038;48.208;16.308;2023-02-22T01:05:47;13.70;64.90
17827;DHT22;9038;48.208;16.308;2023-02-22T01:07:49;13.70;64.70
17827;DHT22;9038;48.208;16.308;2023-02-22T01:09:52;13.70;64.70
17827;DHT22;9038;48.208;16.308;2023-02-22T01:11:54;13.70;64.50
17827;DHT22;9038;48.208;16.308;2023-02-22T01:13:56;13.70;64.60
17827;DHT22;9038;48.208;16.308;2023-02-22T01:15:59;13.70;64.40
17827;DHT22;9038;48.208;16.308;2023-02-22T01:18:00;13.70;64.50
17827;DHT22;9038;48.208;16.308;2023-02-22T01:20:02;13.70;64.60
17827;DHT22;9038;48.208;16.308;2023-02-22T01:22:05;13.70;64.60
17827;DHT22;9038;48.208;16.308;2023-02-22T01:24:06;13.70;64.60
17827;DHT22;9038;48.208;16.308;2023-02-22T01:26:09;13.60;64.90
17827;DHT22;9038;48.208;16.308;2023-02-22T01:28:11;13.60;65.10
17827;DHT22;9038;48.208;16.308;2023-02-22T01:30:15;13.60;65.20
17827;DHT22;9038;48.208;16.308;2023-02-22T01:32:17;13.60;65.20
17827;DHT22;9038;48.208;16.308;2023-02-22T01:34:18;13.60;65.10
17827;DHT22;9038;48.208;16.308;2023-02-22T01:36:20;13.60;65.00
17827;DHT22;9038;48.208;16.308;2023-02-22T01:38:22;13.60;64.90
17827;DHT22;9038;48.208;16.308;2023-02-22T01:40:25;13.60;64.50
17827;DHT22;9038;48.208;16.308;2023-02-22T01:42:28;13.60;64.50
17827;DHT22;9038;48.208;16.308;2023-02-22T01:44:32;13.60;64.40
17827;DHT22;9038;48.208;16.308;2023-02-22T01:46:34;13.60;64.30
17827;DHT22;9038;48.208;16.308;2023-02-22T01:48:38;13.60;64.30
17827;DHT22;9038;48.208;16.308;2023-02-22T01:50:42;13.70;64.30
17827;DHT22;9038;48.208;16.308;2023-02-22T01:52:45;13.70;64.00
17827;DHT22;9038;48.208;16.308;2023-02-22T01:54:47;13.70;63.50
17827;DHT22;9038;48.208;16.308;2023-02-22T01:56:51;13.70;63.40
17827;DHT22;9038;48.208;16.308;2023-02-22T01:58:57;13.70;63.10
17827;DHT22;9038;48.208;16.308;2023-02-22T02:00:59;13.70;63.00
17827;DHT22;9038;48.208;16.308;2023-02-22T02:03:02;13.60;63.00
17827;DHT22;9038;48.208;16.308;2023-02-22T02:05:05;13.70;63.10
17827;DHT22;9038;48.208;16.308;2023-02-22T02:07:09;13.60;63.10
17827;DHT22;9038;48.208;16.308;2023-02-22T02:09:13;13.70;63.20
17827;DHT22;9038;48.208;16.308;2023-02-22T02:11:19;13.60;63.30
17827;DHT22;9038;48.208;16.308;2023-02-22T02:13:21;13.60;63.60
17827;DHT22;9038;48.208;16.308;2023-02-22T02:15:26;13.60;64.30
17827;DHT22;9038;48.208;16.308;2023-02-22T02:17:28;13.60;64.50
17827;DHT22;9038;48.208;16.308;2023-02-22T02:19:33;13.50;64.80
17827;DHT22;9038;48.208;16.308;2023-02-22T02:21:44;13.50;65.10
17827;DHT22;9038;48.208;16.308;2023-02-22T02:24:02;13.50;65.20
17827;DHT22;9038;48.208;16.308;2023-02-22T02:26:26;13.50;65.50
17827;DHT22;9038;48.208;16.308;2023-02-22T02:28:41;13.50;65.60
17827;DHT22;9038;48.208;16.308;2023-02-22T02:30:55;13.50;65.70
17827;DHT22;9038;48.208;16.308;2023-02-22T02:33:01;13.50;65.90
17827;DHT22;9038;48.208;16.308;2023-02-22T02:35:06;13.50;65.80
17827;DHT22;9038;48.208;16.308;2023-02-22T02:37:14;13.50;65.80
17827;DHT22;9038;48.208;16.308;2023-02-22T02:39:23;13.60;65.90
17827;DHT22;9038;48.208;16.308;2023-02-22T02:41:27;13.60;65.90
17827;DHT22;9038;48.208;16.308;2023-02-22T02:43:31;13.60;65.80
17827;DHT22;9038;48.208;16.308;2023-02-22T02:45:34;13.60;65.90
17827;DHT22;9038;48.208;16.308;2023-02-22T02:47:39;13.60;65.70
17827;DHT22;9038;48.208;16.308;2023-02-22T02:49:44;13.60;65.50
17827;DHT22;9038;48.208;16.308;2023-02-22T02:51:48;13.60;65.60
17827;DHT22;9038;48.208;16.308;2023-02-22T02:53:50;13.60;65.60
17827;DHT22;9038;48.208;16.308;2023-02-22T02:55:52;13.60;65.60
17827;DHT22;9038;48.208;16.308;2023-02-22T02:57:54;13.60;65.50
17827;DHT22;9038;48.208;16.308;2023-02-22T02:59:56;13.60;65.50
17827;DHT22;9038;48.208;16.308;2023-02-22T03:02:05;13.60;65.40
17827;DHT22;9038;48.208;16.308;2023-02-22T03:04:16;13.60;65.20
17827;DHT22;9038;48.208;16.308;2023-02-22T03:06:38;13.60;65.20
17827;DHT22;9038;48.208;16.308;2023-02-22T03:08:46;13.60;64.80
17827;DHT22;9038;48.208;16.308;2023-02-22T03:10:52;13.60;65.00
17827;DHT22;9038;48.208;16.308;2023-02-22T03:12:56;13.50;64.80
17827;DHT22;9038;48.208;16.308;2023-02-22T03:15:03;13.60;65.00
17827;DHT22;9038;48.208;16.308;2023-02-22T03:17:08;13.50;65.10
17827;DHT22;9038;48.208;16.308;2023-02-22T03:19:17;13.50;65.10
17827;DHT22;9038;48.208;16.308;2023-02-22T03:21:23;13.50;65.00
17827;DHT22;9038;48.208;16.308;2023-02-22T03:23:27;13.60;65.20
17827;DHT22;9038;48.208;16.308;2023-02-22T03:25:32;13.60;65.10
17827;DHT22;9038;48.208;16.308;2023-02-22T03:27:36;13.60;65.10
17827;DHT22;9038;48.208;16.308;2023-02-22T03:29:43;13.60;65.00
17827;DHT22;9038;48.208;16.308;2023-02-22T03:31:47;13.60;65.00
17827;DHT22;9038;48.208;16.308;2023-02-22T03:33:52;13.60;65.10
17827;DHT22;9038;48.208;16.308;2023-02-22T03:35:57;13.60;65.30
17827;DHT22;9038;48.208;16.308;2023-02-22T03:38:01;13.60;65.20
17827;DHT22;9038;48.208;16.308;2023-02-22T03:40:10;13.50;65.20
17827;DHT22;9038;48.208;16.308;2023-02-22T03:42:15;13.50;65.40
17827;DHT22;9038;48.208;16.308;2023-02-22T03:44:19;13.40;65.80
17827;DHT22;9038;48.208;16.308;2023-02-22T03:46:23;13.40;66.00
17827;DHT22;9038;48.208;16.308;2023-02-22T03:48:29;13.40;66.00
17827;DHT22;9038;48.208;16.308;2023-02-22T03:50:33;13.40;65.90
17827;DHT22;9038;48.208;16.308;2023-02-22T03:52:36;13.40;65.70
17827;DHT22;9038;48.208;16.308;2023-02-22T03:54:38;13.30;65.80
17827;DHT22;9038;48.208;16.308;2023-02-22T03:56:42;13.30;66.00
17827;DHT22;9038;48.208;16.308;2023-02-22T03:58:46;13.40;66.00
17827;DHT22;9038;48.208;16.308;2023-02-22T04:00:49;13.30;66.00
17827;DHT22;9038;48.208;16.308;2023-02-22T04:02:53;13.30;66.00
17827;DHT22;9038;48.208;16.308;2023-02-22T04:04:55;13.30;65.90
17827;DHT22;9038;48.208;16.308;2023-02-22T04:06:57;13.30;65.90
17827;DHT22;9038;48.208;16.308;2023-02-22T04:08:59;13.30;65.70
17827;DHT22;9038;48.208;16.308;2023-02-22T04:11:00;13.40;65.70
17827;DHT22;9038;48.208;16.308;2023-02-22T04:13:04;13.40;65.60
17827;DHT22;9038;48.208;16.308;2023-02-22T04:15:06;13.40;65.60
17827;DHT22;9038;48.208;16.308;2023-02-22T04:17:08;13.40;66.50
17827;DHT22;9038;48.208;16.308;2023-02-22T04:19:10;13.40;65.90
17827;DHT22;9038;48.208;16.308;2023-02-22T04:21:12;13.40;66.10
17827;DHT22;9038;48.208;16.308;2023-02-22T04:23:14;13.30;66.10
17827;DHT22;9038;48.208;16.308;2023-02-22T04:25:16;13.40;66.40
17827;DHT22;9038;48.208;16.308;2023-02-22T04:27:18;13.30;66.50
17827;DHT22;9038;48.208;16.308;2023-02-22T04:29:21;13.30;66.90
17827;DHT22;9038;48.208;16.308;2023-02-22T04:31:22;13.30;67.10
17827;DHT22;9038;48.208;16.308;2023-02-22T04:33:24;13.30;67.10
17827;DHT22;9038;48.208;16.308;2023-02-22T04:35:26;13.30;67.30
17827;DHT22;9038;48.208;16.308;2023-02-22T04:37:28;13.30;67.30
17827;DHT22;9038;48.208;16.308;2023-02-22T04:39:29;13.30;67.10
17827;DHT22;9038;48.208;16.308;2023-02-22T04:41:31;13.30;67.20
17827;DHT22;9038;48.208;16.308;2023-02-22T04:43:33;13.30;67.10
17827;DHT22;9038;48.208;16.308;2023-02-22T04:45:36;13.40;67.30
17827;DHT22;9038;48.208;16.308;2023-02-22T04:47:38;13.30;67.10
17827;DHT22;9038;48.208;16.308;2023-02-22T04:49:40;13.40;67.20
17827;DHT22;9038;48.208;16.308;2023-02-22T04:51:42;13.40;67.30
17827;DHT22;9038;48.208;16.308;2023-02-22T04:53:43;13.40;67.20
17827;DHT22;9038;48.208;16.308;2023-02-22T04:55:45;13.40;67.40
17827;DHT22;9038;48.208;16.308;2023-02-22T04:57:47;13.30;67.30
17827;DHT22;9038;48.208;16.308;2023-02-22T04:59:48;13.40;67.20
17827;DHT22;9038;48.208;16.308;2023-02-22T05:01:52;13.40;67.20
17827;DHT22;9038;48.208;16.308;2023-02-22T05:03:54;13.40;67.10
17827;DHT22;9038;48.208;16.308;2023-02-22T05:05:55;13.40;67.10
17827;DHT22;9038;48.208;16.308;2023-02-22T05:07:57;13.40;67.20
17827;DHT22;9038;48.208;16.308;2023-02-22T05:09:59;13.40;67.20
17827;DHT22;9038;48.208;16.308;2023-02-22T05:12:02;13.40;67.30
17827;DHT22;9038;48.208;16.308;2023-02-22T05:14:04;13.40;67.20
17827;DHT22;9038;48.208;16.308;2023-02-22T05:16:06;13.40;67.20
17827;DHT22;9038;48.208;16.308;2023-02-22T05:18:09;13.40;67.20
17827;DHT22;9038;48.208;16.308;2023-02-22T05:20:14;13.40;67.20
17827;DHT22;9038;48.208;16.308;2023-02-22T05:22:17;13.40;67.00
17827;DHT22;9038;48.208;16.308;2023-02-22T05:24:18;13.40;67.00
17827;DHT22;9038;48.208;16.308;2023-02-22T05:26:20;13.40;67.00
17827;DHT22;9038;48.208;16.308;2023-02-22T05:28:22;13.40;66.40
17827;DHT22;9038;48.208;16.308;2023-02-22T05:30:25;13.40;66.20
17827;DHT22;9038;48.208;16.308;2023-02-22T05:32:27;13.40;66.30
17827;DHT22;9038;48.208;16.308;2023-02-22T05:34:30;13.40;66.10
17827;DHT22;9038;48.208;16.308;2023-02-22T05:36:31;13.40;66.70
17827;DHT22;9038;48.208;16.308;2023-02-22T05:38:34;13.40;65.80
17827;DHT22;9038;48.208;16.308;2023-02-22T05:40:42;13.40;65.60
17827;DHT22;9038;48.208;16.308;2023-02-22T05:42:44;13.40;65.40
17827;DHT22;9038;48.208;16.308;2023-02-22T05:44:46;13.40;64.80
17827;DHT22;9038;48.208;16.308;2023-02-22T05:46:47;13.40;64.20
17827;DHT22;9038;48.208;16.308;2023-02-22T05:48:49;13.40;64.10
17827;DHT22;9038;48.208;16.308;2023-02-22T05:50:52;13.30;64.10
17827;DHT22;9038;48.208;16.308;2023-02-22T05:52:55;13.30;64.40
17827;DHT22;9038;48.208;16.308;2023-02-22T05:54:57;13.30;64.90
17827;DHT22;9038;48.208;16.308;2023-02-22T05:56:58;13.30;65.00
17827;DHT22;9038;48.208;16.308;2023-02-22T05:59:00;13.20;65.80
17827;DHT22;9038;48.208;16.308;2023-02-22T06:01:02;13.20;66.10
17827;DHT22;9038;48.208;16.308;2023-02-22T06:03:04;13.20;67.10
17827;DHT22;9038;48.208;16.308;2023-02-22T06:05:07;13.10;67.80
17827;DHT22;9038;48.208;16.308;2023-02-22T06:07:10;13.10;68.10
17827;DHT22;9038;48.208;16.308;2023-02-22T06:09:12;13.00;68.50
17827;DHT22;9038;48.208;16.308;2023-02-22T06:11:13;13.00;68.90
17827;DHT22;9038;48.208;16.308;2023-02-22T06:13:15;13.00;69.10
17827;DHT22;9038;48.208;16.308;2023-02-22T06:15:17;13.10;69.40
17827;DHT22;9038;48.208;16.308;2023-02-22T06:17:19;13.00;69.80
17827;DHT22;9038;48.208;16.308;2023-02-22T06:19:21;12.90;70.10
17827;DHT22;9038;48.208;16.308;2023-02-22T06:21:23;13.00;70.20
17827;DHT22;9038;48.208;16.308;2023-02-22T06:23:33;13.00;70.10
17827;DHT22;9038;48.208;16.308;2023-02-22T06:25:35;13.10;69.90
17827;DHT22;9038;48.208;16.308;2023-02-22T06:27:37;13.10;69.80
17827;DHT22;9038;48.208;16.308;2023-02-22T06:29:38;13.10;70.20
17827;DHT22;9038;48.208;16.308;2023-02-22T06:31:44;13.10;69.90
17827;DHT22;9038;48.208;16.308;2023-02-22T06:33:46;13.10;69.60
17827;DHT22;9038;48.208;16.308;2023-02-22T06:35:48;13.10;69.70
17827;DHT22;9038;48.208;16.308;2023-02-22T06:37:49;13.10;70.30
17827;DHT22;9038;48.208;16.308;2023-02-22T06:39:52;13.10;70.30
17827;DHT22;9038;48.208;16.308;2023-02-22T06:41:54;13.10;69.80
17827;DHT22;9038;48.208;16.308;2023-02-22T06:43:57;13.20;69.30
17827;DHT22;9038;48.208;16.308;2023-02-22T06:45:58;13.20;68.90
17827;DHT22;9038;48.208;16.308;2023-02-22T06:48:00;13.10;68.30
17827;DHT22;9038;48.208;16.308;2023-02-22T06:50:02;13.10;68.30
17827;DHT22;9038;48.208;16.308;2023-02-22T06:52:04;13.10;68.60
17827;DHT22;9038;48.208;16.308;2023-02-22T06:54:06;13.20;68.50
17827;DHT22;9038;48.208;16.308;2023-02-22T06:56:09;13.20;68.70
17827;DHT22;9038;48.208;16.308;2023-02-22T07:00:49;13.30;68.10
17827;DHT22;9038;48.208;16.308;2023-02-22T07:02:51;13.40;67.70
17827;DHT22;9038;48.208;16.308;2023-02-22T07:04:53;13.40;67.70
17827;DHT22;9038;48.208;16.308;2023-02-22T07:06:54;13.50;67.60
17827;DHT22;9038;48.208;16.308;2023-02-22T07:08:56;13.50;67.70
17827;DHT22;9038;48.208;16.308;2023-02-22T07:10:58;13.60;67.60
17827;DHT22;9038;48.208;16.308;2023-02-22T07:13:01;13.70;67.00
17827;DHT22;9038;48.208;16.308;2023-02-22T07:15:04;13.80;67.10
17827;DHT22;9038;48.208;16.308;2023-02-22T07:17:05;13.80;66.90
17827;DHT22;9038;48.208;16.308;2023-02-22T07:19:07;13.80;66.10
17827;DHT22;9038;48.208;16.308;2023-02-22T07:21:09;14.00;66.00
17827;DHT22;9038;48.208;16.308;2023-02-22T07:23:12;14.00;65.50
17827;DHT22;9038;48.208;16.308;2023-02-22T07:25:14;14.00;65.40
17827;DHT22;9038;48.208;16.308;2023-02-22T07:27:16;14.10;64.90
17827;DHT22;9038;48.208;16.308;2023-02-22T07:29:19;14.10;65.00
17827;DHT22;9038;48.208;16.308;2023-02-22T07:31:23;14.20;65.00
17827;DHT22;9038;48.208;16.308;2023-02-22T07:33:24;14.20;64.90
17827;DHT22;9038;48.208;16.308;2023-02-22T07:35:30;14.30;64.80
17827;DHT22;9038;48.208;16.308;2023-02-22T07:37:32;14.30;64.00
17827;DHT22;9038;48.208;16.308;2023-02-22T07:39:34;14.40;63.50
17827;DHT22;9038;48.208;16.308;2023-02-22T07:41:37;14.40;63.30
17827;DHT22;9038;48.208;16.308;2023-02-22T07:43:39;14.40;63.00
17827;DHT22;9038;48.208;16.308;2023-02-22T07:45:42;14.40;62.40
17827;DHT22;9038;48.208;16.308;2023-02-22T07:47:44;14.40;62.70
17827;DHT22;9038;48.208;16.308;2023-02-22T07:49:46;14.50;62.50
17827;DHT22;9038;48.208;16.308;2023-02-22T07:51:48;14.70;62.30
17827;DHT22;9038;48.208;16.308;2023-02-22T07:53:49;14.70;61.80
17827;DHT22;9038;48.208;16.308;2023-02-22T07:55:51;14.90;61.50
17827;DHT22;9038;48.208;16.308;2023-02-22T07:57:56;15.00;61.10
17827;DHT22;9038;48.208;16.308;2023-02-22T07:59:57;15.10;60.20
17827;DHT22;9038;48.208;16.308;2023-02-22T08:02:01;15.20;59.60
17827;DHT22;9038;48.208;16.308;2023-02-22T08:04:02;15.20;59.00
17827;DHT22;9038;48.208;16.308;2023-02-22T08:06:05;15.30;58.50
17827;DHT22;9038;48.208;16.308;2023-02-22T08:08:07;15.40;58.20
17827;DHT22;9038;48.208;16.308;2023-02-22T08:10:09;15.50;58.10
17827;DHT22;9038;48.208;16.308;2023-02-22T08:12:11;15.60;57.50
17827;DHT22;9038;48.208;16.308;2023-02-22T08:14:14;15.60;56.20
17827;DHT22;9038;48.208;16.308;2023-02-22T08:16:22;15.60;56.20
17827;DHT22;9038;48.208;16.308;2023-02-22T08:18:25;15.60;56.20
17827;DHT22;9038;48.208;16.308;2023-02-22T08:20:27;15.70;55.80
17827;DHT22;9038;48.208;16.308;2023-02-22T08:22:29;15.70;55.10
17827;DHT22;9038;48.208;16.308;2023-02-22T08:24:31;15.60;55.00
17827;DHT22;9038;48.208;16.308;2023-02-22T08:26:33;15.70;55.20
17827;DHT22;9038;48.208;16.308;2023-02-22T08:28:34;15.80;54.70
17827;DHT22;9038;48.208;16.308;2023-02-22T08:30:37;16.00;54.60
17827;DHT22;9038;48.208;16.308;2023-02-22T08:32:39;16.00;53.60
17827;DHT22;9038;48.208;16.308;2023-02-22T08:34:42;16.00;53.20
17827;DHT22;9038;48.208;16.308;2023-02-22T08:36:44;16.10;52.90
17827;DHT22;9038;48.208;16.308;2023-02-22T08:38:46;16.10;52.90
17827;DHT22;9038;48.208;16.308;2023-02-22T08:40:47;16.10;52.90
17827;DHT22;9038;48.208;16.308;2023-02-22T08:42:50;16.20;53.00
17827;DHT22;9038;48.208;16.308;2023-02-22T08:44:52;16.30;52.90
17827;DHT22;9038;48.208;16.308;2023-02-22T08:46:53;16.40;52.10
17827;DHT22;9038;48.208;16.308;2023-02-22T08:48:55;16.50;52.40
17827;DHT22;9038;48.208;16.308;2023-02-22T08:50:58;16.60;52.40
17827;DHT22;9038;48.208;16.308;2023-02-22T08:53:01;16.60;50.80
17827;DHT22;9038;48.208;16.308;2023-02-22T08:55:03;16.60;51.10
17827;DHT22;9038;48.208;16.308;2023-02-22T08:57:05;16.80;51.20
17827;DHT22;9038;48.208;16.308;2023-02-22T08:59:07;16.90;50.50
17827;DHT22;9038;48.208;16.308;2023-02-22T09:01:08;17.00;50.40
17827;DHT22;9038;48.208;16.308;2023-02-22T09:03:11;17.10;50.20
17827;DHT22;9038;48.208;16.308;2023-02-22T09:05:13;17.30;49.90
17827;DHT22;9038;48.208;16.308;2023-02-22T09:07:17;17.30;48.80
17827;DHT22;9038;48.208;16.308;2023-02-22T09:09:19;17.40;48.80
17827;DHT22;9038;48.208;16.308;2023-02-22T09:11:21;17.30;48.30
17827;DHT22;9038;48.208;16.308;2023-02-22T09:13:23;17.30;48.40
17827;DHT22;9038;48.208;16.308;2023-02-22T09:15:24;17.40;48.30
17827;DHT22;9038;48.208;16.308;2023-02-22T09:17:26;17.30;48.10
17827;DHT22;9038;48.208;16.308;2023-02-22T09:19:28;17.30;48.90
17827;DHT22;9038;48.208;16.308;2023-02-22T09:21:30;17.40;48.20
17827;DHT22;9038;48.208;16.308;2023-02-22T09:23:33;17.50;47.80
17827;DHT22;9038;48.208;16.308;2023-02-22T09:25:35;17.70;47.80
17827;DHT22;9038;48.208;16.308;2023-02-22T09:27:38;17.80;47.50
17827;DHT22;9038;48.208;16.308;2023-02-22T09:29:40;18.00;47.20
17827;DHT22;9038;48.208;16.308;2023-02-22T09:31:41;18.20;46.40
17827;DHT22;9038;48.208;16.308;2023-02-22T09:33:43;18.30;46.00
17827;DHT22;9038;48.208;16.308;2023-02-22T09:35:46;18.40;45.60
17827;DHT22;9038;48.208;16.308;2023-02-22T09:37:49;18.40;46.00
17827;DHT22;9038;48.208;16.308;2023-02-22T09:39:52;18.30;45.50
17827;DHT22;9038;48.208;16.308;2023-02-22T09:41:55;18.10;45.60
17827;DHT22;9038;48.208;16.308;2023-02-22T09:44:07;17.90;46.20
17827;DHT22;9038;48.208;16.308;2023-02-22T09:46:17;17.80;46.60
17827;DHT22;9038;48.208;16.308;2023-02-22T09:48:21;17.70;49.10
17827;DHT22;9038;48.208;16.308;2023-02-22T09:50:25;17.60;50.30
17827;DHT22;9038;48.208;16.308;2023-02-22T09:52:29;17.50;51.20
17827;DHT22;9038;48.208;16.308;2023-02-22T09:54:32;17.50;51.50
17827;DHT22;9038;48.208;16.308;2023-02-22T09:56:36;17.40;52.00
17827;DHT22;9038;48.208;16.308;2023-02-22T09:58:39;17.20;52.90
17827;DHT22;9038;48.208;16.308;2023-02-22T10:00:42;17.20;53.40
17827;DHT22;9038;48.208;16.308;2023-02-22T10:02:48;17.60;53.30
17827;DHT22;9038;48.208;16.308;2023-02-22T10:04:53;18.60;51.00
17827;DHT22;9038;48.208;16.308;2023-02-22T10:06:59;18.90;49.60
17827;DHT22;9038;48.208;16.308;2023-02-22T10:09:05;19.00;49.50
17827;DHT22;9038;48.208;16.308;2023-02-22T10:11:09;18.90;49.50
17827;DHT22;9038;48.208;16.308;2023-02-22T10:13:20;19.00;49.70
17827;DHT22;9038;48.208;16.308;2023-02-22T10:15:29;19.20;49.10
17827;DHT22;9038;48.208;16.308;2023-02-22T10:17:34;19.60;48.60
17827;DHT22;9038;48.208;16.308;2023-02-22T10:19:40;19.70;47.60
17827;DHT22;9038;48.208;16.308;2023-02-22T10:21:46;19.70;46.90
17827;DHT22;9038;48.208;16.308;2023-02-22T10:23:52;19.60;46.70
17827;DHT22;9038;48.208;16.308;2023-02-22T10:25:58;19.60;46.80
17827;DHT22;9038;48.208;16.308;2023-02-22T10:28:07;19.50;46.80
17827;DHT22;9038;48.208;16.308;2023-02-22T10:30:15;19.50;47.20
17827;DHT22;9038;48.208;16.308;2023-02-22T10:32:19;19.50;46.70
17827;DHT22;9038;48.208;16.308;2023-02-22T10:34:24;19.40;46.90
17827;DHT22;9038;48.208;16.308;2023-02-22T10:36:25;19.30;46.80
17827;DHT22;9038;48.208;16.308;2023-02-22T10:38:28;19.30;46.10
17827;DHT22;9038;48.208;16.308;2023-02-22T10:40:30;19.40;46.10
17827;DHT22;9038;48.208;16.308;2023-02-22T10:42:35;19.30;46.10
17827;DHT22;9038;48.208;16.308;2023-02-22T10:44:37;19.70;45.50
17827;DHT22;9038;48.208;16.308;2023-02-22T10:46:41;20.10;44.90
17827;DHT22;9038;48.208;16.308;2023-02-22T10:48:44;20.60;43.70
17827;DHT22;9038;48.208;16.308;2023-02-22T10:50:46;21.10;42.40
17827;DHT22;9038;48.208;16.308;2023-02-22T10:52:57;21.40;40.90
17827;DHT22;9038;48.208;16.308;2023-02-22T10:54:59;21.60;41.00
17827;DHT22;9038;48.208;16.308;2023-02-22T10:57:01;22.00;40.30
17827;DHT22;9038;48.208;16.308;2023-02-22T10:59:04;22.20;39.20
17827;DHT22;9038;48.208;16.308;2023-02-22T11:03:16;22.20;38.10
17827;DHT22;9038;48.208;16.308;2023-02-22T11:05:28;22.00;38.60
17827;DHT22;9038;48.208;16.308;2023-02-22T11:07:31;21.80;39.10
17827;DHT22;9038;48.208;16.308;2023-02-22T11:09:44;21.40;39.00
17827;DHT22;9038;48.208;16.308;2023-02-22T11:11:46;20.70;40.40
17827;DHT22;9038;48.208;16.308;2023-02-22T11:13:52;20.30;41.20
17827;DHT22;9038;48.208;16.308;2023-02-22T11:15:57;20.10;41.50
17827;DHT22;9038;48.208;16.308;2023-02-22T11:18:20;19.70;42.20
17827;DHT22;9038;48.208;16.308;2023-02-22T11:20:23;19.80;42.90
17827;DHT22;9038;48.208;16.308;2023-02-22T11:22:26;19.80;42.50
17827;DHT22;9038;48.208;16.308;2023-02-22T11:24:30;19.70;42.70
17827;DHT22;9038;48.208;16.308;2023-02-22T11:26:36;19.80;42.50
17827;DHT22;9038;48.208;16.308;2023-02-22T11:28:38;19.80;42.40
17827;DHT22;9038;48.208;16.308;2023-02-22T11:30:48;19.60;42.70
17827;DHT22;9038;48.208;16.308;2023-02-22T11:32:52;19.90;43.00
17827;DHT22;9038;48.208;16.308;2023-02-22T11:34:56;20.00;42.20
17827;DHT22;9038;48.208;16.308;2023-02-22T11:37:26;20.10;41.90
17827;DHT22;9038;48.208;16.308;2023-02-22T11:39:30;19.60;42.20
17827;DHT22;9038;48.208;16.308;2023-02-22T11:41:33;19.20;42.80
17827;DHT22;9038;48.208;16.308;2023-02-22T11:43:35;19.20;43.00
17827;DHT22;9038;48.208;16.308;2023-02-22T11:45:37;19.00;43.40
17827;DHT22;9038;48.208;16.308;2023-02-22T11:47:45;18.70;44.70
17827;DHT22;9038;48.208;16.308;2023-02-22T11:51:58;19.00;43.50
17827;DHT22;9038;48.208;16.308;2023-02-22T11:54:15;19.20;43.50
17827;DHT22;9038;48.208;16.308;2023-02-22T11:56:25;18.80;43.40
17827;DHT22;9038;48.208;16.308;2023-02-22T11:58:32;18.60;44.10
17827;DHT22;9038;48.208;16.308;2023-02-22T12:00:41;18.40;44.40
17827;DHT22;9038;48.208;16.308;2023-02-22T12:02:48;18.40;44.90
17827;DHT22;9038;48.208;16.308;2023-02-22T12:04:59;18.40;45.00
17827;DHT22;9038;48.208;16.308;2023-02-22T12:07:15;18.60;44.80
17827;DHT22;9038;48.208;16.308;2023-02-22T12:09:19;18.80;44.80
17827;DHT22;9038;48.208;16.308;2023-02-22T12:11:24;18.70;44.70
17827;DHT22;9038;48.208;16.308;2023-02-22T12:13:32;18.70;44.90
17827;DHT22;9038;48.208;16.308;2023-02-22T12:15:41;18.50;45.00
17827;DHT22;9038;48.208;16.308;2023-02-22T12:17:47;18.20;45.70
17827;DHT22;9038;48.208;16.308;2023-02-22T12:19:52;18.20;45.80
17827;DHT22;9038;48.208;16.308;2023-02-22T12:21:56;18.20;46.20
17827;DHT22;9038;48.208;16.308;2023-02-22T12:24:00;18.00;46.70
17827;DHT22;9038;48.208;16.308;2023-02-22T12:26:04;18.00;46.70
17827;DHT22;9038;48.208;16.308;2023-02-22T12:28:12;18.10;47.10
17827;DHT22;9038;48.208;16.308;2023-02-22T12:30:17;17.80;47.80
17827;DHT22;9038;48.208;16.308;2023-02-22T12:32:23;17.70;47.70
17827;DHT22;9038;48.208;16.308;2023-02-22T12:34:30;17.50;48.80
17827;DHT22;9038;48.208;16.308;2023-02-22T12:36:34;17.40;49.00
17827;DHT22;9038;48.208;16.308;2023-02-22T12:38:39;17.50;48.90
17827;DHT22;9038;48.208;16.308;2023-02-22T12:40:46;17.40;48.80
17827;DHT22;9038;48.208;16.308;2023-02-22T12:42:55;17.40;49.10
17827;DHT22;9038;48.208;16.308;2023-02-22T12:45:00;17.40;48.90
17827;DHT22;9038;48.208;16.308;2023-02-22T12:47:03;17.40;48.80
17827;DHT22;9038;48.208;16.308;2023-02-22T12:51:20;17.50;48.50
17827;DHT22;9038;48.208;16.308;2023-02-22T12:53:24;17.60;48.90
17827;DHT22;9038;48.208;16.308;2023-02-22T12:55:28;17.50;49.40
17827;DHT22;9038;48.208;16.308;2023-02-22T12:57:35;17.40;49.00
17827;DHT22;9038;48.208;16.308;2023-02-22T12:59:40;17.30;49.00
17827;DHT22;9038;48.208;16.308;2023-02-22T13:01:45;17.40;49.10
17827;DHT22;9038;48.208;16.308;2023-02-22T13:03:51;17.40;48.80
17827;DHT22;9038;48.208;16.308;2023-02-22T13:05:58;17.20;48.90
17827;DHT22;9038;48.208;16.308;2023-02-22T13:08:09;17.00;49.40
17827;DHT22;9038;48.208;16.308;2023-02-22T13:10:20;16.90;49.50